sensor_id;sensor_type;location;lat;lon;timestamp;pressure;altitude;pressure_sealevel;temperature;humidity
40285;BME280;25997;50.214;19.354;2023-02-14T00:00:13;99547.72;;;2.68;68.41
40285;BME280;25997;50.214;19.354;2023-02-14T00:03:16;99546.94;;;2.69;68.24
40285;BME280;25997;50.214;19.354;2023-02-14T00:06:18;99546.19;;;2.60;68.62
40285;BME280;25997;50.214;19.354;2023-02-14T00:09:21;99545.97;;;2.57;68.43
40285;BME280;25997;50.214;19.354;2023-02-14T00:12:25;99544.25;;;2.58;68.72
40285;BME280;25997;50.214;19.354;2023-02-14T00:15:27;99531.97;;;2.55;68.62
40285;BME280;25997;50.214;19.354;2023-02-14T00:18:29;99547.63;;;2.57;68.54
40285;BME280;25997;50.214;19.354;2023-02-14T00:21:46;99544.38;;;2.59;68.77
40285;BME280;25997;50.214;19.354;2023-02-14T00:24:48;99551.25;;;2.59;68.69
40285;BME280;25997;50.214;19.354;2023-02-14T00:27:52;99553.72;;;2.57;68.62
40285;BME280;25997;50.214;19.354;2023-02-14T00:30:55;99544.78;;;2.54;68.69
40285;BME280;25997;50.214;19.354;2023-02-14T00:33:58;99549.06;;;2.53;68.84
40285;BME280;25997;50.214;19.354;2023-02-14T00:37:02;99557.09;;;2.56;68.67
40285;BME280;25997;50.214;19.354;2023-02-14T00:40:06;99546.72;;;2.56;68.65
40285;BME280;25997;50.214;19.354;2023-02-14T00:43:10;99553.84;;;2.59;68.70
40285;BME280;25997;50.214;19.354;2023-02-14T00:46:13;99551.91;;;2.56;68.68
40285;BME280;25997;50.214;19.354;2023-02-14T00:49:16;99553.03;;;2.60;68.61
40285;BME280;25997;50.214;19.354;2023-02-14T00:52:19;99550.72;;;2.63;68.59
40285;BME280;25997;50.214;19.354;2023-02-14T00:55:21;99547.84;;;2.60;68.42
40285;BME280;25997;50.214;19.354;2023-02-14T00:58:25;99548.91;;;2.62;68.53
40285;BME280;25997;50.214;19.354;2023-02-14T01:01:28;99539.75;;;2.55;68.29
40285;BME280;25997;50.214;19.354;2023-02-14T01:04:30;99549.19;;;2.55;68.31
40285;BME280;25997;50.214;19.354;2023-02-14T01:07:33;99544.94;;;2.55;67.89
40285;BME280;25997;50.214;19.354;2023-02-14T01:10:35;99536.34;;;2.56;67.52
40285;BME280;25997;50.214;19.354;2023-02-14T01:13:40;99537.22;;;2.67;67.21
40285;BME280;25997;50.214;19.354;2023-02-14T01:16:42;99525.97;;;2.66;66.71
40285;BME280;25997;50.214;19.354;2023-02-14T01:19:45;99529.69;;;2.70;66.54
40285;BME280;25997;50.214;19.354;2023-02-14T01:22:50;99528.66;;;2.68;66.44
40285;BME280;25997;50.214;19.354;2023-02-14T01:25:55;99525.28;;;2.69;66.29
40285;BME280;25997;50.214;19.354;2023-02-14T01:29:03;99530.47;;;2.69;66.06
40285;BME280;25997;50.214;19.354;2023-02-14T01:32:09;99525.16;;;2.67;65.86
40285;BME280;25997;50.214;19.354;2023-02-14T01:35:11;99517.50;;;2.69;65.74
40285;BME280;25997;50.214;19.354;2023-02-14T01:38:14;99521.81;;;2.68;65.54
40285;BME280;25997;50.214;19.354;2023-02-14T01:41:20;99520.22;;;2.70;65.45
40285;BME280;25997;50.214;19.354;2023-02-14T01:44:59;99529.69;;;2.70;65.05
40285;BME280;25997;50.214;19.354;2023-02-14T01:48:04;99522.44;;;2.66;65.32
40285;BME280;25997;50.214;19.354;2023-02-14T01:51:08;99522.03;;;2.71;65.23
40285;BME280;25997;50.214;19.354;2023-02-14T01:54:11;99519.69;;;2.74;65.15
40285;BME280;25997;50.214;19.354;2023-02-14T01:57:17;99519.31;;;2.70;65.12
40285;BME280;25997;50.214;19.354;2023-02-14T02:00:22;99518.94;;;2.65;65.27
40285;BME280;25997;50.214;19.354;2023-02-14T02:03:45;99503.28;;;2.64;65.21
40285;BME280;25997;50.214;19.354;2023-02-14T02:06:51;99507.91;;;2.68;65.42
40285;BME280;25997;50.214;19.354;2023-02-14T02:10:00;99511.53;;;2.70;65.28
40285;BME280;25997;50.214;19.354;2023-02-14T02:13:06;99509.97;;;2.72;65.22
40285;BME280;25997;50.214;19.354;2023-02-14T02:16:21;99519.41;;;2.82;65.01
40285;BME280;25997;50.214;19.354;2023-02-14T02:19:59;99522.09;;;2.83;64.95
40285;BME280;25997;50.214;19.354;2023-02-14T02:23:36;99523.41;;;2.78;64.91
40285;BME280;25997;50.214;19.354;2023-02-14T02:30:38;99526.81;;;2.77;65.30
40285;BME280;25997;50.214;19.354;2023-02-14T02:34:08;99526.66;;;2.75;65.05
40285;BME280;25997;50.214;19.354;2023-02-14T02:37:29;99528.50;;;2.77;65.32
40285;BME280;25997;50.214;19.354;2023-02-14T02:40:44;99520.47;;;2.73;65.49
40285;BME280;25997;50.214;19.354;2023-02-14T02:43:53;99518.56;;;2.71;65.56
40285;BME280;25997;50.214;19.354;2023-02-14T02:47:03;99515.81;;;2.69;65.50
40285;BME280;25997;50.214;19.354;2023-02-14T02:50:21;99520.47;;;2.73;65.34
40285;BME280;25997;50.214;19.354;2023-02-14T02:53:48;99517.63;;;2.70;65.51
40285;BME280;25997;50.214;19.354;2023-02-14T02:56:56;99520.09;;;2.69;65.55
40285;BME280;25997;50.214;19.354;2023-02-14T03:00:03;99519.44;;;2.71;65.60
40285;BME280;25997;50.214;19.354;2023-02-14T03:03:08;99516.63;;;2.68;65.59
40285;BME280;25997;50.214;19.354;2023-02-14T03:06:29;99523.59;;;2.69;65.38
40285;BME280;25997;50.214;19.354;2023-02-14T03:09:54;99505.72;;;2.62;65.44
40285;BME280;25997;50.214;19.354;2023-02-14T03:13:29;99510.69;;;2.59;65.47
40285;BME280;25997;50.214;19.354;2023-02-14T03:16:50;99514.03;;;2.58;65.76
40285;BME280;25997;50.214;19.354;2023-02-14T03:20:06;99512.44;;;2.70;65.40
40285;BME280;25997;50.214;19.354;2023-02-14T03:23:19;99516.91;;;2.83;65.16
40285;BME280;25997;50.214;19.354;2023-02-14T03:26:31;99511.72;;;2.83;64.96
40285;BME280;25997;50.214;19.354;2023-02-14T03:29:44;99514.06;;;2.80;64.79
40285;BME280;25997;50.214;19.354;2023-02-14T03:32:57;99517.22;;;2.76;65.02
40285;BME280;25997;50.214;19.354;2023-02-14T03:36:05;99521.63;;;2.77;64.96
40285;BME280;25997;50.214;19.354;2023-02-14T03:39:14;99522.22;;;2.85;64.94
40285;BME280;25997;50.214;19.354;2023-02-14T03:42:27;99521.59;;;2.87;64.86
40285;BME280;25997;50.214;19.354;2023-02-14T03:45:41;99516.66;;;2.80;65.08
40285;BME280;25997;50.214;19.354;2023-02-14T03:48:46;99526.31;;;2.71;65.14
40285;BME280;25997;50.214;19.354;2023-02-14T03:51:55;99520.88;;;2.68;65.59
40285;BME280;25997;50.214;19.354;2023-02-14T03:55:02;99521.25;;;2.72;65.22
40285;BME280;25997;50.214;19.354;2023-02-14T03:58:10;99528.13;;;2.72;65.13
40285;BME280;25997;50.214;19.354;2023-02-14T04:01:20;99526.84;;;2.67;65.29
40285;BME280;25997;50.214;19.354;2023-02-14T04:04:26;99523.75;;;2.61;65.29
40285;BME280;25997;50.214;19.354;2023-02-14T04:07:43;99529.44;;;2.67;64.93
40285;BME280;25997;50.214;19.354;2023-02-14T04:10:51;99527.63;;;2.66;64.98
40285;BME280;25997;50.214;19.354;2023-02-14T04:13:55;99525.28;;;2.69;65.16
40285;BME280;25997;50.214;19.354;2023-02-14T04:16:58;99535.78;;;2.70;65.06
40285;BME280;25997;50.214;19.354;2023-02-14T04:20:18;99533.56;;;2.75;64.50
40285;BME280;25997;50.214;19.354;2023-02-14T04:23:21;99528.66;;;2.68;65.06
40285;BME280;25997;50.214;19.354;2023-02-14T04:26:23;99528.56;;;2.66;65.01
40285;BME280;25997;50.214;19.354;2023-02-14T04:29:27;99535.41;;;2.66;65.00
40285;BME280;25997;50.214;19.354;2023-02-14T04:32:32;99524.69;;;2.61;65.04
40285;BME280;25997;50.214;19.354;2023-02-14T04:35:36;99524.47;;;2.48;65.24
40285;BME280;25997;50.214;19.354;2023-02-14T04:38:38;99528.09;;;2.40;65.49
40285;BME280;25997;50.214;19.354;2023-02-14T04:41:41;99528.09;;;2.40;65.51
40285;BME280;25997;50.214;19.354;2023-02-14T04:44:45;99529.94;;;2.41;65.30
40285;BME280;25997;50.214;19.354;2023-02-14T04:47:47;99532.53;;;2.41;65.43
40285;BME280;25997;50.214;19.354;2023-02-14T04:50:51;99537.59;;;2.40;65.54
40285;BME280;25997;50.214;19.354;2023-02-14T04:53:54;99535.13;;;2.41;65.20
40285;BME280;25997;50.214;19.354;2023-02-14T04:56:57;99535.13;;;2.41;65.06
40285;BME280;25997;50.214;19.354;2023-02-14T05:00:02;99538.91;;;2.35;65.28
40285;BME280;25997;50.214;19.354;2023-02-14T05:03:05;99537.44;;;2.38;65.08
40285;BME280;25997;50.214;19.354;2023-02-14T05:06:08;99539.00;;;2.36;65.27
40285;BME280;25997;50.214;19.354;2023-02-14T05:09:11;99540.56;;;2.34;65.22
40285;BME280;25997;50.214;19.354;2023-02-14T05:12:15;99539.00;;;2.36;65.25
40285;BME280;25997;50.214;19.354;2023-02-14T05:15:19;99539.91;;;2.37;65.25
40285;BME280;25997;50.214;19.354;2023-02-14T05:18:21;99540.84;;;2.37;65.05
40285;BME280;25997;50.214;19.354;2023-02-14T05:21:24;99548.22;;;2.33;65.15
40285;BME280;25997;50.214;19.354;2023-02-14T05:24:28;99550.56;;;2.40;65.20
40285;BME280;25997;50.214;19.354;2023-02-14T05:27:31;99542.88;;;2.41;65.00
40285;BME280;25997;50.214;19.354;2023-02-14T05:30:36;99545.09;;;2.37;64.91
40285;BME280;25997;50.214;19.354;2023-02-14T05:33:38;99550.03;;;2.34;65.10
40285;BME280;25997;50.214;19.354;2023-02-14T05:36:43;99551.22;;;2.27;65.13
40285;BME280;25997;50.214;19.354;2023-02-14T05:39:45;99544.25;;;2.26;65.22
40285;BME280;25997;50.214;19.354;2023-02-14T05:42:48;99548.63;;;2.27;65.22
40285;BME280;25997;50.214;19.354;2023-02-14T05:45:52;99550.06;;;2.24;65.26
40285;BME280;25997;50.214;19.354;2023-02-14T05:48:55;99555.78;;;2.20;65.16
40285;BME280;25997;50.214;19.354;2023-02-14T05:51:58;99563.66;;;2.21;65.53
40285;BME280;25997;50.214;19.354;2023-02-14T05:55:01;99570.78;;;2.24;65.28
40285;BME280;25997;50.214;19.354;2023-02-14T05:58:03;99564.97;;;2.26;65.36
40285;BME280;25997;50.214;19.354;2023-02-14T06:01:11;99575.56;;;2.29;65.43
40285;BME280;25997;50.214;19.354;2023-02-14T06:04:13;99572.47;;;2.23;65.44
40285;BME280;25997;50.214;19.354;2023-02-14T06:07:21;99566.38;;;2.23;65.62
40285;BME280;25997;50.214;19.354;2023-02-14T06:10:24;99575.81;;;2.22;65.78
40285;BME280;25997;50.214;19.354;2023-02-14T06:13:27;99575.72;;;2.21;65.85
40285;BME280;25997;50.214;19.354;2023-02-14T06:16:31;99575.31;;;2.16;65.84
40285;BME280;25997;50.214;19.354;2023-02-14T06:19:33;99575.22;;;2.15;66.09
40285;BME280;25997;50.214;19.354;2023-02-14T06:22:37;99579.72;;;2.27;65.83
40285;BME280;25997;50.214;19.354;2023-02-14T06:25:40;99586.94;;;2.31;65.37
40285;BME280;25997;50.214;19.354;2023-02-14T06:28:42;99583.44;;;2.41;65.26
40285;BME280;25997;50.214;19.354;2023-02-14T06:31:46;99577.63;;;2.43;65.15
40285;BME280;25997;50.214;19.354;2023-02-14T06:34:48;99590.16;;;2.49;64.92
40285;BME280;25997;50.214;19.354;2023-02-14T06:37:51;99587.72;;;2.50;65.05
40285;BME280;25997;50.214;19.354;2023-02-14T06:40:53;99591.31;;;2.52;64.74
40285;BME280;25997;50.214;19.354;2023-02-14T06:43:56;99589.00;;;2.55;64.72
40285;BME280;25997;50.214;19.354;2023-02-14T06:47:00;99595.22;;;2.57;64.73
40285;BME280;25997;50.214;19.354;2023-02-14T06:50:03;99597.50;;;2.64;64.46
40285;BME280;25997;50.214;19.354;2023-02-14T06:53:07;99594.50;;;2.70;64.39
40285;BME280;25997;50.214;19.354;2023-02-14T06:56:09;99594.63;;;2.71;64.25
40285;BME280;25997;50.214;19.354;2023-02-14T06:59:16;99594.88;;;2.74;64.18
40285;BME280;25997;50.214;19.354;2023-02-14T07:02:21;99587.66;;;2.70;64.51
40285;BME280;25997;50.214;19.354;2023-02-14T07:05:24;99589.97;;;2.67;64.33
40285;BME280;25997;50.214;19.354;2023-02-14T07:08:27;99589.97;;;2.67;64.30
40285;BME280;25997;50.214;19.354;2023-02-14T07:11:33;99593.59;;;2.69;64.31
40285;BME280;25997;50.214;19.354;2023-02-14T07:14:35;99589.88;;;2.66;64.22
40285;BME280;25997;50.214;19.354;2023-02-14T07:17:39;99589.06;;;2.67;64.40
40285;BME280;25997;50.214;19.354;2023-02-14T07:20:41;99603.31;;;2.72;64.22
40285;BME280;25997;50.214;19.354;2023-02-14T07:23:44;99608.78;;;2.75;64.29
40285;BME280;25997;50.214;19.354;2023-02-14T07:26:49;99605.41;;;2.66;64.54
40285;BME280;25997;50.214;19.354;2023-02-14T07:29:52;99595.69;;;2.63;64.59
40285;BME280;25997;50.214;19.354;2023-02-14T07:32:57;99600.34;;;2.67;64.32
40285;BME280;25997;50.214;19.354;2023-02-14T07:36:03;99607.59;;;2.71;64.52
40285;BME280;25997;50.214;19.354;2023-02-14T07:39:06;99611.19;;;2.84;64.25
40285;BME280;25997;50.214;19.354;2023-02-14T07:42:08;99610.81;;;2.89;64.31
40285;BME280;25997;50.214;19.354;2023-02-14T07:45:12;99607.19;;;2.87;64.25
40285;BME280;25997;50.214;19.354;2023-02-14T07:48:16;99609.78;;;2.87;64.25
40285;BME280;25997;50.214;19.354;2023-02-14T07:51:19;99608.47;;;2.92;64.21
40285;BME280;25997;50.214;19.354;2023-02-14T07:54:22;99612.34;;;2.97;64.13
40285;BME280;25997;50.214;19.354;2023-02-14T07:57:24;99604.41;;;3.06;64.08
40285;BME280;25997;50.214;19.354;2023-02-14T08:00:27;99599.47;;;3.09;63.94
40285;BME280;25997;50.214;19.354;2023-02-14T08:03:31;99606.34;;;3.08;63.98
40285;BME280;25997;50.214;19.354;2023-02-14T08:06:34;99607.59;;;3.13;63.85
40285;BME280;25997;50.214;19.354;2023-02-14T08:09:36;99612.16;;;3.37;63.67
40285;BME280;25997;50.214;19.354;2023-02-14T08:12:42;99604.72;;;3.42;63.49
40285;BME280;25997;50.214;19.354;2023-02-14T08:16:03;99604.41;;;3.49;63.50
40285;BME280;25997;50.214;19.354;2023-02-14T08:19:07;99600.38;;;3.53;63.39
40285;BME280;25997;50.214;19.354;2023-02-14T08:22:10;99605.78;;;3.56;63.51
40285;BME280;25997;50.214;19.354;2023-02-14T08:25:13;99604.25;;;3.58;63.28
40285;BME280;25997;50.214;19.354;2023-02-14T08:28:15;99614.63;;;3.58;63.38
40285;BME280;25997;50.214;19.354;2023-02-14T08:31:22;99605.38;;;3.61;63.33
40285;BME280;25997;50.214;19.354;2023-02-14T08:34:27;99629.09;;;3.66;63.12
40285;BME280;25997;50.214;19.354;2023-02-14T08:37:30;99623.81;;;3.76;63.38
40285;BME280;25997;50.214;19.354;2023-02-14T08:40:32;99630.25;;;3.91;63.30
40285;BME280;25997;50.214;19.354;2023-02-14T08:43:36;99625.75;;;4.00;62.96
40285;BME280;25997;50.214;19.354;2023-02-14T08:46:39;99629.72;;;4.06;62.93
40285;BME280;25997;50.214;19.354;2023-02-14T08:49:43;99636.72;;;4.07;62.66
40285;BME280;25997;50.214;19.354;2023-02-14T08:52:45;99636.47;;;4.04;62.56
40285;BME280;25997;50.214;19.354;2023-02-14T08:55:48;99627.91;;;4.05;62.53
40285;BME280;25997;50.214;19.354;2023-02-14T08:58:51;99637.44;;;4.16;62.53
40285;BME280;25997;50.214;19.354;2023-02-14T09:01:54;99630.22;;;4.24;62.45
40285;BME280;25997;50.214;19.354;2023-02-14T09:04:58;99630.28;;;4.14;62.16
40285;BME280;25997;50.214;19.354;2023-02-14T09:08:01;99636.72;;;4.07;62.12
40285;BME280;25997;50.214;19.354;2023-02-14T09:11:07;99633.00;;;4.04;62.03
40285;BME280;25997;50.214;19.354;2023-02-14T09:14:10;99627.28;;;4.19;61.97
40285;BME280;25997;50.214;19.354;2023-02-14T09:17:14;99628.84;;;4.17;62.02
40285;BME280;25997;50.214;19.354;2023-02-14T09:20:18;99635.31;;;4.34;62.13
40285;BME280;25997;50.214;19.354;2023-02-14T09:23:21;99628.78;;;4.39;61.76
40285;BME280;25997;50.214;19.354;2023-02-14T09:26:24;99638.97;;;4.48;61.50
40285;BME280;25997;50.214;19.354;2023-02-14T09:29:27;99632.41;;;4.41;61.40
40285;BME280;25997;50.214;19.354;2023-02-14T09:32:30;99640.63;;;4.36;61.39
40285;BME280;25997;50.214;19.354;2023-02-14T09:35:34;99639.50;;;4.32;61.28
40285;BME280;25997;50.214;19.354;2023-02-14T09:38:37;99642.31;;;4.24;61.10
40285;BME280;25997;50.214;19.354;2023-02-14T09:42:02;99637.47;;;4.28;61.01
40285;BME280;25997;50.214;19.354;2023-02-14T09:45:11;99647.06;;;4.41;61.50
40285;BME280;25997;50.214;19.354;2023-02-14T09:48:24;99647.44;;;4.57;60.30
40285;BME280;25997;50.214;19.354;2023-02-14T09:51:30;99649.25;;;4.58;59.81
40285;BME280;25997;50.214;19.354;2023-02-14T09:54:34;99636.72;;;4.64;60.56
40285;BME280;25997;50.214;19.354;2023-02-14T09:57:42;99641.16;;;4.76;60.26
40285;BME280;25997;50.214;19.354;2023-02-14T10:00:51;99634.28;;;4.77;60.26
40285;BME280;25997;50.214;19.354;2023-02-14T10:04:14;99637.41;;;4.84;60.20
40285;BME280;25997;50.214;19.354;2023-02-14T10:07:23;99630.88;;;5.01;60.09
40285;BME280;25997;50.214;19.354;2023-02-14T10:10:32;99631.19;;;5.17;60.08
40285;BME280;25997;50.214;19.354;2023-02-14T10:13:40;99641.47;;;5.16;59.37
40285;BME280;25997;50.214;19.354;2023-02-14T10:16:47;99630.38;;;5.18;59.80
40285;BME280;25997;50.214;19.354;2023-02-14T10:19:55;99631.78;;;5.13;59.69
40285;BME280;25997;50.214;19.354;2023-02-14T10:23:04;99645.56;;;4.89;58.40
40285;BME280;25997;50.214;19.354;2023-02-14T10:26:10;99645.56;;;4.89;59.33
40285;BME280;25997;50.214;19.354;2023-02-14T10:29:17;99635.53;;;4.82;59.13
40285;BME280;25997;50.214;19.354;2023-02-14T10:32:25;99641.84;;;4.85;58.86
40285;BME280;25997;50.214;19.354;2023-02-14T10:35:37;99641.19;;;5.00;58.90
40285;BME280;25997;50.214;19.354;2023-02-14T10:38:50;99633.69;;;5.04;58.42
40285;BME280;25997;50.214;19.354;2023-02-14T10:42:05;99625.66;;;5.01;58.17
40285;BME280;25997;50.214;19.354;2023-02-14T10:45:15;99631.66;;;5.00;58.32
40285;BME280;25997;50.214;19.354;2023-02-14T10:48:25;99618.09;;;5.04;58.46
40285;BME280;25997;50.214;19.354;2023-02-14T10:51:34;99630.88;;;5.01;57.96
40285;BME280;25997;50.214;19.354;2023-02-14T10:54:42;99620.59;;;4.91;58.30
40285;BME280;25997;50.214;19.354;2023-02-14T10:57:48;99624.06;;;5.03;58.39
40285;BME280;25997;50.214;19.354;2023-02-14T11:00:57;99621.94;;;4.98;57.14
40285;BME280;25997;50.214;19.354;2023-02-14T11:04:02;99616.84;;;4.99;58.05
40285;BME280;25997;50.214;19.354;2023-02-14T11:07:11;99617.28;;;4.93;57.68
40285;BME280;25997;50.214;19.354;2023-02-14T11:10:17;99614.72;;;4.82;58.09
40285;BME280;25997;50.214;19.354;2023-02-14T11:13:29;99605.31;;;4.84;58.07
40285;BME280;25997;50.214;19.354;2023-02-14T11:16:34;99605.84;;;4.80;58.26
40285;BME280;25997;50.214;19.354;2023-02-14T11:19:37;99607.69;;;4.92;58.35
40285;BME280;25997;50.214;19.354;2023-02-14T11:22:39;99607.69;;;4.81;58.09
40285;BME280;25997;50.214;19.354;2023-02-14T11:25:49;99604.41;;;4.83;58.24
40285;BME280;25997;50.214;19.354;2023-02-14T11:28:55;99613.56;;;4.78;58.01
40285;BME280;25997;50.214;19.354;2023-02-14T11:32:06;99607.91;;;4.84;58.10
40285;BME280;25997;50.214;19.354;2023-02-14T11:35:18;99606.19;;;4.84;57.99
40285;BME280;25997;50.214;19.354;2023-02-14T11:38:27;99598.06;;;4.80;58.59
40285;BME280;25997;50.214;19.354;2023-02-14T11:41:51;99598.06;;;4.80;57.38
40285;BME280;25997;50.214;19.354;2023-02-14T11:44:54;99602.00;;;4.63;58.23
40285;BME280;25997;50.214;19.354;2023-02-14T11:48:14;99593.94;;;4.60;57.82
40285;BME280;25997;50.214;19.354;2023-02-14T11:51:17;99587.97;;;4.50;58.33
40285;BME280;25997;50.214;19.354;2023-02-14T11:54:28;99586.28;;;4.62;58.02
40285;BME280;25997;50.214;19.354;2023-02-14T11:57:34;99591.38;;;4.72;58.11
40285;BME280;25997;50.214;19.354;2023-02-14T12:00:39;99590.63;;;4.73;57.93
40285;BME280;25997;50.214;19.354;2023-02-14T12:03:45;99588.56;;;4.80;57.96
40285;BME280;25997;50.214;19.354;2023-02-14T12:06:48;99580.16;;;4.96;57.75
40285;BME280;25997;50.214;19.354;2023-02-14T12:10:15;99581.72;;;5.17;57.20
40285;BME280;25997;50.214;19.354;2023-02-14T12:13:23;99571.44;;;5.07;57.34
40285;BME280;25997;50.214;19.354;2023-02-14T12:16:31;99570.06;;;5.12;57.54
40285;BME280;25997;50.214;19.354;2023-02-14T12:19:41;99564.75;;;5.11;57.56
40285;BME280;25997;50.214;19.354;2023-02-14T12:22:50;99567.13;;;5.08;57.36
40285;BME280;25997;50.214;19.354;2023-02-14T12:25:57;99556.72;;;5.08;57.40
40285;BME280;25997;50.214;19.354;2023-02-14T12:29:11;99557.38;;;5.17;56.72
40285;BME280;25997;50.214;19.354;2023-02-14T12:32:20;99559.06;;;5.16;57.41
40285;BME280;25997;50.214;19.354;2023-02-14T12:35:35;99550.56;;;5.30;57.44
40285;BME280;25997;50.214;19.354;2023-02-14T12:38:53;99549.53;;;5.28;56.86
40285;BME280;25997;50.214;19.354;2023-02-14T12:42:01;99552.59;;;5.23;57.37
40285;BME280;25997;50.214;19.354;2023-02-14T12:45:13;99547.28;;;5.21;57.40
40285;BME280;25997;50.214;19.354;2023-02-14T12:48:26;99544.69;;;5.21;57.24
40285;BME280;25997;50.214;19.354;2023-02-14T12:51:41;99534.00;;;5.30;55.33
40285;BME280;25997;50.214;19.354;2023-02-14T12:55:00;99539.31;;;5.31;56.73
40285;BME280;25997;50.214;19.354;2023-02-14T12:58:15;99536.78;;;5.44;57.01
40285;BME280;25997;50.214;19.354;2023-02-14T13:05:19;99538.69;;;5.47;56.44
40285;BME280;25997;50.214;19.354;2023-02-14T13:08:37;99531.84;;;5.36;56.63
40285;BME280;25997;50.214;19.354;2023-02-14T13:11:50;99526.88;;;5.27;56.61
40285;BME280;25997;50.214;19.354;2023-02-14T13:15:03;99510.47;;;5.28;56.95
40285;BME280;25997;50.214;19.354;2023-02-14T13:18:16;99527.44;;;5.35;56.78
40285;BME280;25997;50.214;19.354;2023-02-14T13:21:22;99525.25;;;5.41;56.47
40285;BME280;25997;50.214;19.354;2023-02-14T13:24:28;99526.75;;;5.37;56.46
40285;BME280;25997;50.214;19.354;2023-02-14T13:27:36;99525.56;;;5.21;56.26
40285;BME280;25997;50.214;19.354;2023-02-14T13:30:40;99518.88;;;5.24;56.45
40285;BME280;25997;50.214;19.354;2023-02-14T13:33:47;99528.13;;;5.32;56.64
40285;BME280;25997;50.214;19.354;2023-02-14T13:36:52;99529.91;;;5.33;55.61
40285;BME280;25997;50.214;19.354;2023-02-14T13:39:59;99517.47;;;5.29;56.32
40285;BME280;25997;50.214;19.354;2023-02-14T13:43:03;99518.06;;;5.25;56.08
40285;BME280;25997;50.214;19.354;2023-02-14T13:46:06;99521.00;;;5.30;56.17
40285;BME280;25997;50.214;19.354;2023-02-14T13:49:23;99517.63;;;5.31;55.16
40285;BME280;25997;50.214;19.354;2023-02-14T13:52:40;99528.25;;;5.22;55.62
40285;BME280;25997;50.214;19.354;2023-02-14T13:55:44;99515.13;;;5.21;56.15
40285;BME280;25997;50.214;19.354;2023-02-14T13:58:48;99520.41;;;5.34;56.29
40285;BME280;25997;50.214;19.354;2023-02-14T14:01:52;99520.78;;;5.27;55.65
40285;BME280;25997;50.214;19.354;2023-02-14T14:04:56;99519.94;;;5.15;55.65
40285;BME280;25997;50.214;19.354;2023-02-14T14:11:57;99519.25;;;5.17;55.37
40285;BME280;25997;50.214;19.354;2023-02-14T14:15:18;99512.75;;;5.24;55.94
40285;BME280;25997;50.214;19.354;2023-02-14T14:18:33;99519.34;;;5.19;55.73
40285;BME280;25997;50.214;19.354;2023-02-14T14:21:44;99523.75;;;5.20;56.10
40285;BME280;25997;50.214;19.354;2023-02-14T14:25:02;99521.34;;;5.23;55.91
40285;BME280;25997;50.214;19.354;2023-02-14T14:28:09;99513.34;;;5.20;56.15
40285;BME280;25997;50.214;19.354;2023-02-14T14:31:12;99508.50;;;5.13;55.99
40285;BME280;25997;50.214;19.354;2023-02-14T14:34:18;99516.00;;;4.97;56.04
40285;BME280;25997;50.214;19.354;2023-02-14T14:37:25;99514.00;;;4.92;55.91
40285;BME280;25997;50.214;19.354;2023-02-14T14:40:29;99517.13;;;5.00;56.28
40285;BME280;25997;50.214;19.354;2023-02-14T14:43:34;99506.03;;;5.03;55.92
40285;BME280;25997;50.214;19.354;2023-02-14T14:46:37;99505.59;;;4.97;56.17
40285;BME280;25997;50.214;19.354;2023-02-14T14:49:40;99507.28;;;4.96;56.16
40285;BME280;25997;50.214;19.354;2023-02-14T14:52:46;99506.53;;;4.85;55.72
40285;BME280;25997;50.214;19.354;2023-02-14T14:55:50;99516.03;;;4.85;56.17
40285;BME280;25997;50.214;19.354;2023-02-14T14:58:53;99516.50;;;4.79;56.18
40285;BME280;25997;50.214;19.354;2023-02-14T15:01:56;99510.84;;;4.73;56.44
40285;BME280;25997;50.214;19.354;2023-02-14T15:05:12;99501.56;;;4.65;55.86
40285;BME280;25997;50.214;19.354;2023-02-14T15:08:20;99511.28;;;4.56;55.91
40285;BME280;25997;50.214;19.354;2023-02-14T15:11:25;99504.63;;;4.48;56.52
40285;BME280;25997;50.214;19.354;2023-02-14T15:14:48;99512.88;;;4.54;56.38
40285;BME280;25997;50.214;19.354;2023-02-14T15:17:54;99504.97;;;4.64;56.36
40285;BME280;25997;50.214;19.354;2023-02-14T15:20:58;99514.81;;;4.57;56.20
40285;BME280;25997;50.214;19.354;2023-02-14T15:24:03;99514.81;;;4.57;56.18
40285;BME280;25997;50.214;19.354;2023-02-14T15:27:11;99527.47;;;4.52;56.08
40285;BME280;25997;50.214;19.354;2023-02-14T15:30:22;99521.03;;;4.47;56.08
40285;BME280;25997;50.214;19.354;2023-02-14T15:33:27;99531.91;;;4.42;56.24
40285;BME280;25997;50.214;19.354;2023-02-14T15:36:31;99525.19;;;4.34;56.21
40285;BME280;25997;50.214;19.354;2023-02-14T15:39:38;99520.91;;;4.34;56.29
40285;BME280;25997;50.214;19.354;2023-02-14T15:42:43;99523.50;;;4.34;56.15
40285;BME280;25997;50.214;19.354;2023-02-14T15:45:48;99531.44;;;4.24;56.21
40285;BME280;25997;50.214;19.354;2023-02-14T15:48:52;99527.34;;;4.28;56.22
40285;BME280;25997;50.214;19.354;2023-02-14T15:51:56;99530.53;;;4.24;56.36
40285;BME280;25997;50.214;19.354;2023-02-14T15:55:00;99535.41;;;4.31;56.33
40285;BME280;25997;50.214;19.354;2023-02-14T15:58:04;99535.50;;;4.32;56.42
40285;BME280;25997;50.214;19.354;2023-02-14T16:01:07;99529.97;;;4.39;56.35
40285;BME280;25997;50.214;19.354;2023-02-14T16:04:10;99538.69;;;4.40;56.23
40285;BME280;25997;50.214;19.354;2023-02-14T16:07:22;99542.16;;;4.40;56.34
40285;BME280;25997;50.214;19.354;2023-02-14T16:10:27;99542.41;;;4.43;56.39
40285;BME280;25997;50.214;19.354;2023-02-14T16:13:32;99544.31;;;4.46;56.62
40285;BME280;25997;50.214;19.354;2023-02-14T16:16:56;99552.13;;;4.46;56.21
40285;BME280;25997;50.214;19.354;2023-02-14T16:19:58;99545.09;;;4.45;56.56
40285;BME280;25997;50.214;19.354;2023-02-14T16:23:20;99548.84;;;4.48;55.91
40285;BME280;25997;50.214;19.354;2023-02-14T16:26:24;99556.84;;;4.51;56.68
40285;BME280;25997;50.214;19.354;2023-02-14T16:29:27;99554.50;;;4.54;56.71
40285;BME280;25997;50.214;19.354;2023-02-14T16:32:29;99553.25;;;4.61;56.79
40285;BME280;25997;50.214;19.354;2023-02-14T16:35:32;99558.00;;;4.66;56.69
40285;BME280;25997;50.214;19.354;2023-02-14T16:38:39;99554.50;;;4.66;56.60
40285;BME280;25997;50.214;19.354;2023-02-14T16:41:46;99557.34;;;4.57;56.62